Latest Weather Observations for Wynyard

IDT60801

Issued at 11:35 am EST Wednesday 3 September 2014 (issued every 30 minutes, with the page automatically refreshed every 10 minutes)

About weather observations | Map of weather stations | Latest weather observations for TAS | Other Formats
Station Details ID: 091107 Name: WYNYARD AIRPORT Lat: -41.00 Lon: 145.73 Height: 12.0 m
Data from the previous 72 hours. | See also: Recent months at Wynyard
Date/Time
EST
Temp
°C
App
Temp
°C
Dew
Point
Rel
Hum
%
Delta-T
°C
Wind Press
QNH
hPa
Press
MSL
hPa
Rain
since 9 am
mm
Dir
 
Spd
km/h
Gust
km/h
Spd
kts
Gust
kts
03/11:30am 12.2 8.8 6.0 66 2.9 NE 13 17 7 9 1020.8 1020.8 0.0
03/11:00am 12.4 8.8 6.9 69 2.6 NE 15 17 8 9 1021.1 1021.1 0.0
03/10:30am 12.4 9.9 4.6 59 3.6 SSE 7 11 4 6 1021.5 1021.5 0.0
03/10:00am 11.9 7.9 4.9 62 3.2 S 15 22 8 12 1021.9 1021.9 0.0
03/09:30am 11.2 7.6 5.1 66 2.8 SSW 13 20 7 11 1022.2 1022.2 0.0
03/09:00am 9.7 6.8 4.7 71 2.2 W 9 13 5 7 1022.2 1022.2 0.2
03/08:30am 7.2 3.2 4.7 84 1.1 WNW 15 19 8 10 1022.1 1022.1 0.2
03/08:00am 5.1 1.0 4.1 93 0.4 W 15 19 8 10 1022.1 1022.1 0.2
03/07:30am 3.4 0.2 3.3 99 0.0 WNW 9 13 5 7 1021.8 1021.8 0.2
03/07:00am 2.0 -2.2 1.6 97 0.2 W 13 15 7 8 1021.6 1021.6 0.2
03/06:30am 2.8 -0.6 1.8 93 0.4 WSW 9 11 5 6 1021.5 1021.5 0.2
03/06:00am 2.1 -1.3 1.7 97 0.2 W 9 13 5 7 1021.5 1021.5 0.2
03/05:30am 1.9 -2.4 1.2 95 0.3 WNW 13 15 7 8 1021.4 1021.4 0.2
03/05:00am 2.3 -0.7 1.9 97 0.2 W 7 11 4 6 1021.3 1021.3 0.2
03/04:30am 2.7 -0.8 1.1 89 0.6 WNW 9 11 5 6 1021.2 1021.2 0.2
03/04:00am 3.6 -0.6 1.6 87 0.8 W 13 13 7 7 1021.3 1021.3 0.2
03/03:30am 4.6 0.8 2.0 83 1.0 N 11 13 6 7 1021.2 1021.2 0.2
03/03:00am 5.1 1.7 1.6 78 1.4 SW 9 13 5 7 1021.1 1021.1 0.2
03/02:30am 4.4 0.2 1.6 82 1.1 W 13 17 7 9 1021.3 1021.3 0.2
03/02:00am 4.9 1.4 1.0 76 1.5 WSW 9 17 5 9 1021.7 1021.7 0.2
03/01:30am 5.5 2.0 1.1 73 1.7 WSW 9 17 5 9 1021.9 1021.9 0.2
03/01:00am 6.7 2.4 1.0 67 2.3 SSW 13 20 7 11 1021.6 1021.6 0.2
03/12:30am 7.1 2.8 0.8 64 2.5 SSW 13 20 7 11 1021.6 1021.6 0.2
03/12:00am 7.2 2.2 1.1 65 2.4 SSW 17 28 9 15 1021.6 1021.6 0.2
 
Date/Time
EST
Temp
°C
App
Temp
°C
Dew
Point
Rel
Hum
%
Delta-T
°C
Wind Press
QNH
hPa
Press
MSL
hPa
Rain
since 9 am
mm
Dir
 
Spd
km/h
Gust
km/h
Spd
kts
Gust
kts
02/11:30pm 7.7 2.1 1.1 63 2.7 SSW 20 32 11 17 1021.3 1021.3 0.2
02/11:00pm 7.6 2.0 1.5 65 2.5 SSW 20 28 11 15 1021.2 1021.2 0.2
02/10:30pm 7.1 3.0 2.4 72 1.9 SSW 13 19 7 10 1021.3 1021.3 0.2
02/10:00pm 6.7 2.0 3.0 77 1.5 SW 17 26 9 14 1021.2 1021.2 0.2
02/09:30pm 7.3 3.0 3.5 77 1.6 SSW 15 20 8 11 1021.3 1021.3 0.2
02/09:00pm 7.7 3.1 3.6 75 1.7 SSW 17 24 9 13 1021.4 1021.4 0.2
02/08:30pm 8.0 3.0 3.7 74 1.8 SSW 19 32 10 17 1021.3 1021.3 0.2
02/08:00pm 8.4 1.7 3.7 72 2.0 SSW 28 37 15 20 1020.9 1020.9 0.2
02/07:30pm 8.0 2.9 4.0 76 1.7 SW 20 28 11 15 1020.9 1020.9 0.2
02/07:00pm 8.3 5.0 4.5 77 1.7 SW 11 19 6 10 1020.8 1020.8 0.2
02/06:30pm 8.6 6.0 4.4 75 1.8 S 7 11 4 6 1020.5 1020.5 0.2
02/06:00pm 8.8 5.7 3.8 71 2.2 SW 9 13 5 7 1020.0 1020.0 0.2
02/05:30pm 10.7 5.6 4.0 63 3.0 SW 20 26 11 14 1019.4 1019.4 0.2
02/05:00pm 11.8 7.1 3.3 56 3.7 SSW 17 26 9 14 1019.1 1019.1 0.2
02/04:30pm 12.9 8.2 3.0 51 4.4 S 17 26 9 14 1018.6 1018.6 0.2
02/04:00pm 13.5 8.0 2.1 46 5.0 SW 20 32 11 17 1018.3 1018.3 0.2
02/03:30pm 13.7 9.7 4.8 55 4.1 S 15 20 8 11 1018.1 1018.1 0.2
02/03:00pm 13.7 7.5 2.0 45 5.1 SW 24 39 13 21 1018.0 1018.0 0.2
02/02:30pm 12.3 6.2 3.0 53 4.1 SSW 24 35 13 19 1017.9 1017.9 0.2
02/02:00pm 13.8 7.6 2.4 46 5.0 SSW 24 37 13 20 1017.6 1017.6 0.0
02/01:30pm 14.9 9.4 4.0 48 5.0 SW 22 35 12 19 1017.6 1017.6 0.0
02/01:00pm 14.0 9.6 2.9 47 4.9 SSW 15 24 8 13 1017.6 1017.6 0.0
02/12:30pm 13.6 7.7 1.9 45 5.1 SW 22 33 12 18 1017.8 1017.8 0.0
02/12:00pm 13.3 7.7 1.3 44 5.1 SSW 20 30 11 16 1018.0 1018.0 0.0
02/11:30am 13.3 7.9 2.2 47 4.8 SW 20 26 11 14 1018.1 1018.1 0.0
02/11:00am 12.6 7.7 2.2 49 4.5 S 17 24 9 13 1018.2 1018.2 0.0
02/10:30am 12.2 7.5 3.2 54 4.0 S 17 28 9 15 1018.2 1018.2 0.0
02/10:00am 11.4 6.7 3.4 58 3.5 S 17 24 9 13 1018.1 1018.1 0.0
02/09:30am 10.7 5.8 4.2 64 2.9 S 19 28 10 15 1017.8 1017.8 0.0
02/09:00am 9.9 5.3 3.6 65 2.7 S 17 28 9 15 1017.5 1017.5 5.6
02/08:30am 9.2 5.0 3.6 68 2.4 S 15 26 8 14 1017.2 1017.2 5.6
02/08:00am 8.3 4.9 3.8 73 1.9 SSW 11 19 6 10 1016.7 1016.8 5.6
02/07:30am 7.1 4.1 3.9 80 1.4 SW 9 15 5 8 1016.4 1016.5 5.6
02/07:00am 6.5 2.2 3.5 81 1.3 SSW 15 22 8 12 1015.9 1016.0 5.6
02/06:30am 6.6 2.4 3.8 82 1.2 SSW 15 24 8 13 1015.5 1015.6 5.6
02/06:00am 6.6 2.8 3.8 82 1.2 SSW 13 17 7 9 1015.1 1015.2 5.6
02/05:30am 6.5 3.1 3.8 83 1.1 SSW 11 17 6 9 1014.7 1014.8 5.6
02/05:00am 6.1 2.7 4.1 87 0.9 SSW 11 17 6 9 1014.2 1014.3 5.6
02/04:30am 5.8 2.8 4.0 88 0.8 WSW 9 11 5 6 1013.6 1013.7 5.6
02/04:00am 6.2 3.3 4.4 88 0.8 SW 9 13 5 7 1013.0 1013.1 5.6
02/03:30am 6.9 3.6 4.6 85 1.0 SSW 11 17 6 9 1012.9 1013.0 5.6
02/03:00am 6.9 2.8 4.4 84 1.1 SSW 15 19 8 10 1012.5 1012.6 5.6
02/02:30am 7.7 3.6 4.5 80 1.4 SSW 15 24 8 13 1012.1 1012.2 5.6
02/02:00am 7.5 4.2 4.5 81 1.3 SSW 11 19 6 10 1011.8 1011.9 5.6
02/01:30am 7.2 4.3 4.7 84 1.1 SW 9 15 5 8 1011.5 1011.6 5.6
02/01:00am 7.6 4.7 4.7 82 1.3 S 9 11 5 6 1011.3 1011.4 5.6
02/12:30am 7.9 4.3 5.0 82 1.3 SSW 13 22 7 12 1011.0 1011.1 5.6
02/12:00am 7.8 3.1 5.1 83 1.2 SSW 19 26 10 14 1010.7 1010.8 5.6
 
Date/Time
EST
Temp
°C
App
Temp
°C
Dew
Point
Rel
Hum
%
Delta-T
°C
Wind Press
QNH
hPa
Press
MSL
hPa
Rain
since 9 am
mm
Dir
 
Spd
km/h
Gust
km/h
Spd
kts
Gust
kts
01/11:30pm 7.8 2.9 5.3 84 1.1 SW 20 26 11 14 1010.3 1010.4 5.6
01/11:00pm 6.6 4.6 4.3 85 1.0 WNW 4 9 2 5 1010.2 1010.3 5.6
01/10:30pm 7.5 6.0 4.8 83 1.2 SSW 2 9 1 5 1009.9 1010.0 5.6
01/10:00pm 7.4 4.6 5.0 85 1.1 WSW 9 15 5 8 1009.5 1009.6 5.6
01/09:30pm 8.0 3.6 4.9 81 1.4 SW 17 22 9 12 1009.0 1009.1 5.6
01/09:00pm 8.5 4.2 5.3 80 1.4 SW 17 22 9 12 1008.8 1008.9 5.6
01/08:30pm 8.6 4.4 5.5 81 1.4 SW 17 22 9 12 1008.6 1008.7 5.6
01/08:00pm 8.8 4.0 5.7 81 1.4 SW 20 26 11 14 1008.1 1008.2 5.6
01/07:30pm 9.2 4.1 6.1 81 1.4 SW 22 32 12 17 1007.6 1007.7 5.6
01/07:00pm 9.8 4.8 6.3 79 1.6 SW 22 33 12 18 1007.0 1007.1 5.6
01/06:30pm 9.9 6.0 7.0 82 1.4 WSW 17 22 9 12 1006.7 1006.8 5.6
01/06:00pm 10.7 5.8 7.0 78 1.8 WSW 22 30 12 16 1006.0 1006.1 5.6
01/05:30pm 11.6 8.3 8.1 79 1.7 SW 15 20 8 11 1005.5 1005.5 5.6
01/05:00pm 12.6 9.1 8.9 78 1.9 WSW 17 24 9 13 1005.1 1005.1 5.6
01/04:30pm 12.7 8.6 8.8 77 2.0 WSW 20 26 11 14 1004.7 1004.7 5.6
01/04:00pm 13.0 9.3 9.4 79 1.8 WSW 19 24 10 13 1004.3 1004.3 5.6
01/03:30pm 13.4 9.8 9.8 79 1.8 WSW 19 26 10 14 1004.0 1004.0 5.6
01/03:00pm 13.3 9.3 10.3 82 1.6 WSW 22 33 12 18 1003.7 1003.7 5.6
01/02:30pm 13.7 10.9 11.2 85 1.3 WSW 17 22 9 12 1003.5 1003.5 5.6
01/02:00pm 13.2 9.1 10.2 82 1.6 WSW 22 28 12 15 1003.5 1003.5 5.6
01/01:30pm 13.4 11.3 12.3 93 0.6 W 15 22 8 12 1003.4 1003.4 5.6
01/01:00pm 12.9 10.9 12.7 99 0.1 WNW 15 19 8 10 1003.4 1003.4 5.6
01/12:30pm 12.5 10.4 12.3 99 0.1 NW 15 19 8 10 1003.6 1003.6 5.6
01/12:00pm 12.7 10.7 12.7 100 0.0 W 15 19 8 10 1003.6 1003.6 5.6
01/11:47am 12.6 10.2 12.6 100 0.0 WNW 17 22 9 12 1003.6 1003.6 5.2
01/11:30am 12.6 9.6 12.6 100 0.0 NW 20 28 11 15 1003.4 1003.4 4.8
01/11:08am 12.5 9.7 12.5 100 0.0 NW 19 30 10 16 1003.7 1003.7 4.6
01/11:00am 12.4 9.3 12.2 99 0.1 NNW 20 28 11 15 1003.8 1003.8 4.4
01/10:55am 12.3 8.8 12.1 99 0.1 NW 22 33 12 18 1003.9 1003.9 4.4
01/10:49am 12.3 8.4 12.1 99 0.1 NW 24 33 13 18 1003.9 1003.9 4.4
01/10:30am 12.4 9.3 12.2 99 0.1 NNW 20 30 11 16 1004.0 1004.0 3.6
01/10:18am 12.7 10.3 12.5 99 0.1 NNW 17 20 9 11 1004.2 1004.2 1.6
01/10:14am 12.8 10.0 12.6 99 0.1 NNW 19 30 10 16 1004.2 1004.2 1.4
01/10:04am 12.8 9.8 12.6 99 0.1 NNW 20 32 11 17 1004.2 1004.2 1.2
01/10:00am 12.9 9.9 12.7 99 0.1 NNW 20 32 11 17 1004.3 1004.3 1.2
01/09:47am 12.8 9.1 12.6 99 0.1 NNW 24 35 13 19 1004.6 1004.7 1.2
01/09:30am 12.9 9.2 12.6 98 0.2 NNW 24 39 13 21 1004.9 1005.0 0.6
01/09:00am 12.9 10.3 12.1 95 0.4 NNW 17 28 9 15 1004.8 1004.9 3.4
01/08:30am 13.1 10.1 12.0 93 0.6 NNW 19 28 10 15 1005.1 1005.2 2.6
01/08:00am 13.2 11.9 12.4 95 0.4 NNW 11 19 6 10 1005.2 1005.3 2.2
01/07:30am 13.2 11.7 11.9 92 0.7 N 11 17 6 9 1005.2 1005.3 2.0
01/07:00am 11.9 11.7 11.7 99 0.1 E 4 9 2 5 1005.6 1005.7 1.6
01/06:30am 12.1 11.4 11.9 99 0.1 NE 7 11 4 6 1005.6 1005.7 1.4
01/06:00am 11.5 10.8 11.3 99 0.1 ESE 6 9 3 5 1005.5 1005.6 1.4
01/05:30am 11.7 11.1 11.7 100 0.0 NE 6 9 3 5 1006.1 1006.2 1.2
01/05:00am 11.1 11.5 11.1 100 0.0 CALM 0 6 0 3 1006.0 1006.1 1.2
01/04:30am 11.1 10.7 11.1 100 0.0 WNW 4 9 2 5 1006.4 1006.5 1.0
01/04:00am 11.2 10.3 11.2 100 0.0 ENE 7 11 4 6 1006.5 1006.6 1.0
01/03:30am 11.2 11.2 11.2 100 0.0 SSE 2 6 1 3 1006.7 1006.8 1.0
01/03:00am 11.5 10.2 11.3 99 0.1 SSE 9 13 5 7 1007.4 1007.5 0.6
01/02:30am 11.8 11.2 11.6 99 0.1 SE 6 9 3 5 1007.8 1007.9 0.6
01/02:00am 12.2 10.0 12.0 99 0.1 SE 15 20 8 11 1008.2 1008.3 0.6
01/01:30am 12.3 10.9 12.1 99 0.1 SE 11 15 6 8 1008.5 1008.6 0.6
01/01:00am 12.3 10.1 12.1 99 0.1 SE 15 20 8 11 1008.8 1008.9 0.6
01/12:30am 12.2 7.9 12.0 99 0.1 E 26 35 14 19 1008.5 1008.6 0.4
01/12:00am 12.2 9.2 12.0 99 0.1 E 19 28 10 15 1009.2 1009.3 0.4
 
Date/Time
EST
Temp
°C
App
Temp
°C
Dew
Point
Rel
Hum
%
Delta-T
°C
Wind Press
QNH
hPa
Press
MSL
hPa
Rain
since 9 am
mm
Dir
 
Spd
km/h
Gust
km/h
Spd
kts
Gust
kts
31/11:30pm 12.3 9.3 12.1 99 0.1 E 19 24 10 13 1009.6 1009.7 0.4
31/11:00pm 12.3 9.3 12.1 99 0.1 ESE 19 24 10 13 1010.4 1010.5 0.2
31/10:30pm 12.5 9.6 12.3 99 0.1 E 19 24 10 13 1011.2 1011.3 0.0
31/10:00pm 12.3 9.7 12.1 99 0.1 E 17 28 9 15 1011.2 1011.3 0.0
31/09:30pm 12.2 9.2 12.0 99 0.1 E 19 24 10 13 1011.1 1011.2 0.0
31/09:00pm 12.0 9.3 11.8 99 0.1 ESE 17 24 9 13 1011.7 1011.8 0.0
31/08:30pm 11.9 9.3 11.9 100 0.0 ESE 17 20 9 11 1012.1 1012.2 0.0
31/08:00pm 12.2 9.3 12.2 100 0.0 ESE 19 22 10 12 1012.3 1012.4 0.0
31/07:57pm 12.1 9.1 12.1 100 0.0 ESE 19 24 10 13 1012.3 1012.4 0.0
31/07:30pm 12.3 9.4 12.3 100 0.0 ESE 19 26 10 14 1012.4 1012.5 0.0
31/07:00pm 12.3 9.2 12.3 100 0.0 E 20 26 11 14 1012.6 1012.7 0.0
31/06:30pm 12.4 9.9 12.4 100 0.0 E 17 28 9 15 1012.6 1012.7 0.0
31/06:00pm 12.4 9.5 12.4 100 0.0 E 19 26 10 14 1012.6 1012.7 0.0
31/05:30pm 12.5 10.4 12.3 99 0.1 E 15 20 8 11 1012.9 1013.0 0.0
31/05:08pm 12.7 10.6 12.5 99 0.1 E 15 22 8 12 1013.0 1013.1 0.0
31/05:00pm 12.7 10.6 12.5 99 0.1 E 15 22 8 12 1012.9 1013.0 0.0
31/04:47pm 12.8 10.4 12.6 99 0.1 E 17 22 9 12 1012.9 1013.0 0.0
31/04:30pm 13.0 11.0 12.8 99 0.1 E 15 20 8 11 1013.0 1013.1 0.0
31/04:00pm 13.0 10.6 12.8 99 0.1 E 17 24 9 13 1013.2 1013.3 0.0
31/03:30pm 13.6 11.4 13.4 99 0.1 E 17 26 9 14 1013.5 1013.6 0.0
31/03:00pm 13.4 11.1 13.1 98 0.2 E 17 26 9 14 1013.9 1014.0 0.0
31/02:30pm 13.5 10.9 13.3 99 0.1 E 19 26 10 14 1014.0 1014.1 0.0
31/02:00pm 13.4 10.8 13.2 99 0.1 E 19 28 10 15 1014.8 1014.9 0.0
31/01:44pm 13.5 11.3 13.3 99 0.1 E 17 22 9 12 1015.1 1015.2 0.0
31/01:42pm 13.7 11.6 13.5 99 0.1 E 17 22 9 12 1015.1 1015.2 0.0
31/01:30pm 13.4 10.6 13.2 99 0.1 E 20 26 11 14 1015.4 1015.5 0.0
31/01:00pm 13.8 11.6 13.2 96 0.3 E 17 24 9 13 1015.4 1015.5 0.0
31/12:30pm 13.4 10.5 12.8 96 0.3 E 20 28 11 15 1015.7 1015.8 0.0
31/12:00pm 13.1 10.1 12.6 97 0.3 E 20 26 11 14 1016.4 1016.5 0.0

Other Formats:

Comma delimited format used in spreadsheet applications
http://www.bom.gov.au/fwo/IDT60801/IDT60801.95957.axf

JavaScript Object Notation format (JSON) in row-major order
http://www.bom.gov.au/fwo/IDT60801/IDT60801.95957.json